This is the latest recevied weather packets stored in our database for station/object N0QWM. If no packets are shown the sender has not sent any weather packets the latest 10 day(s).
| Time | Temp. | Humidity | Pressure | Rain* | Wind** | Luminosity | Snow |
|---|---|---|---|---|---|---|---|
| 1788378714 | 35° C | 51% | 1021.7 hPa | 0 mm | - | 103 W/m² | - |
| 1788378407 | 35.56° C | 51% | 1021.8 hPa | 0 mm | - | 83 W/m² | - |
| 1788378103 | 35.56° C | 50% | 1021.7 hPa | 0 mm | - | 81 W/m² | - |
| 1788377798 | 36.11° C | 51% | 1022 hPa | 0 mm | - | 105 W/m² | - |
| 1788377498 | 36.11° C | 50% | 1022 hPa | 0 mm | - | 178 W/m² | - |
| 1788377197 | 36.11° C | 51% | 1022 hPa | 0 mm | - | 160 W/m² | - |
| 1788376896 | 36.11° C | 50% | 1022 hPa | 0 mm | - | 139 W/m² | - |
| 1788376591 | 35.56° C | 50% | 1022.4 hPa | 0 mm | - | 494 W/m² | - |
| 1788376285 | 35.56° C | 52% | 1022.5 hPa | 0 mm | - | 111 W/m² | - |
| 1788375981 | 35.56° C | 51% | 1022.4 hPa | 0 mm | - | 131 W/m² | - |
| 1788375676 | 35.56° C | 51% | 1022.3 hPa | 0 mm | - | 117 W/m² | - |
| 1788375372 | 35° C | 53% | 1022.5 hPa | 0 mm | - | 198 W/m² | - |
| 1788375068 | 36.11° C | 50% | 1022.7 hPa | 0 mm | - | 129 W/m² | - |
| 1788374763 | 36.11° C | 49% | 1022.7 hPa | 0 mm | - | 157 W/m² | - |
| 1788374458 | 35.56° C | 52% | 1022.6 hPa | 0 mm | - | 654 W/m² | - |
| 1788374154 | 35° C | 53% | 1022.6 hPa | 0 mm | - | 487 W/m² | - |
| 1788373850 | 35° C | 54% | 1022.8 hPa | 0 mm | - | 170 W/m² | - |
| 1788373546 | 35° C | 54% | 1022.9 hPa | 0 mm | - | 110 W/m² | - |
| 1788373243 | 35° C | 52% | 1023 hPa | 0 mm | - | 115 W/m² | - |
| 1788372938 | 35.56° C | 51% | 1023 hPa | 0 mm | - | 131 W/m² | - |
| 1788372632 | 36.11° C | 49% | 1023.2 hPa | 0 mm | - | 163 W/m² | - |
| 1788372327 | 36.67° C | 49% | 1023.1 hPa | 0 mm | - | 115 W/m² | - |
| 1788372023 | 36.11° C | 49% | 1023 hPa | 0 mm | - | 624 W/m² | - |
| 1788371722 | 35° C | 51% | 1023 hPa | 0 mm | - | 710 W/m² | - |
| 1788371418 | 34.44° C | 54% | 1023.1 hPa | 0 mm | - | 114 W/m² | - |
* Rain latest hour (hover to see other rain measurements)
** Current wind speed in m/s (hover to see current wind gust speed)